Portada
METAR-TAF:

METAR-TAF

Aeroports :

Saint-Brieuc, França

latitud: 48-32N, longitud: 002-51W, altitud: 138 m

Observació

L'informe es va fer fa 7 hores i 19 minuts, a les 22:00 UTC
Vent 11 kt del Sud-Oest, variant entre Sud/Sud-Oest i Oest
Temperatura 11°C
Humitat 94%
Pressió 1028 hPa
Visibilitat 10 km o més
Cel cobert a una alçada de 1000 ft

METAR: LFRT 222200Z AUTO 23011KT 200V260 9999 OVC010 11/10 Q1028

Hora: 06:19 (05:19 UTC)


TAF: manca

Observacions i pronòstics meteorològics de més de 4000 aeroports (METAR i TAF).

Les estacions disponibles són els punts grocs i vermells al mapa.

Posi el ratolí al punt desitjat per veure el nom de l'estació.

Feu clic per veure les observacions i els pronòstics meteorològics.

Per canviar el mapa: feu clic els botons verds amb una creu de color negre per apropar; al botó verd amb un guió per allunyar la imatge; o en les fletxes verdes per a mapes adjacents.


METAR-TAF: